createdAt,value
2023-04-26T00:02:13.989Z,11.65
2023-04-26T00:04:42.175Z,10.50
2023-04-26T00:07:10.207Z,10.88
2023-04-26T00:09:37.980Z,11.90
2023-04-26T00:12:07.551Z,10.43
2023-04-26T00:14:35.379Z,9.38
2023-04-26T00:17:04.465Z,10.13
2023-04-26T00:19:33.132Z,9.27
2023-04-26T00:22:01.021Z,9.05
2023-04-26T00:24:28.803Z,7.22
2023-04-26T00:26:56.784Z,8.40
2023-04-26T00:29:26.015Z,8.73
2023-04-26T00:31:53.914Z,9.30
2023-04-26T00:34:21.931Z,9.80
2023-04-26T00:36:51.128Z,9.77
2023-04-26T00:39:18.895Z,9.50
2023-04-26T00:41:46.670Z,9.60
2023-04-26T00:44:14.502Z,9.45
2023-04-26T00:46:43.829Z,9.48
2023-04-26T00:49:13.072Z,9.38
2023-04-26T00:51:40.926Z,9.38
2023-04-26T00:54:09.175Z,9.18
2023-04-26T00:56:37.784Z,9.30
2023-04-26T00:59:05.808Z,9.00
2023-04-26T01:01:33.680Z,9.57
2023-04-26T01:04:04.328Z,9.50
2023-04-26T01:06:35.267Z,10.38
2023-04-26T01:09:08.271Z,10.20
2023-04-26T01:11:37.459Z,10.20
2023-04-26T01:14:06.124Z,11.52
2023-04-26T01:16:34.134Z,11.10
2023-04-26T01:19:11.087Z,11.07
2023-04-26T01:21:40.126Z,11.80
2023-04-26T01:24:10.465Z,11.00
2023-04-26T01:26:44.118Z,10.30
2023-04-26T01:29:18.167Z,10.70
2023-04-26T01:31:46.323Z,11.93
2023-04-26T01:34:14.494Z,10.82
2023-04-26T01:36:42.612Z,11.30
2023-04-26T01:39:11.932Z,11.77
2023-04-26T01:41:39.723Z,12.05
2023-04-26T01:44:07.660Z,11.88
2023-04-26T01:46:35.836Z,9.63
2023-04-26T01:49:03.773Z,11.45
2023-04-26T01:51:32.585Z,11.73
2023-04-26T01:54:00.874Z,11.63
2023-04-26T01:56:30.097Z,11.20
2023-04-26T01:58:59.268Z,11.60
2023-04-26T02:01:27.421Z,12.52
2023-04-26T02:03:55.392Z,12.77
2023-04-26T02:06:23.221Z,12.98
2023-04-26T02:08:53.304Z,12.85
2023-04-26T02:11:21.446Z,13.60
2023-04-26T02:13:50.697Z,13.80
2023-04-26T02:16:22.397Z,15.00
2023-04-26T02:18:51.266Z,12.50
2023-04-26T02:21:19.325Z,12.90
2023-04-26T02:23:47.934Z,12.82
2023-04-26T02:26:15.775Z,11.60
2023-04-26T02:28:44.551Z,11.55
2023-04-26T02:31:13.782Z,12.43
2023-04-26T02:33:41.608Z,12.15
2023-04-26T02:36:09.577Z,12.02
2023-04-26T02:38:37.910Z,12.57
2023-04-26T02:41:06.554Z,12.43
2023-04-26T02:43:34.730Z,13.88
2023-04-26T02:46:02.708Z,14.23
2023-04-26T02:48:33.400Z,13.90
2023-04-26T02:51:01.229Z,12.30
2023-04-26T02:53:29.242Z,11.40
2023-04-26T02:55:57.041Z,11.70
2023-04-26T02:58:24.913Z,12.13
2023-04-26T03:00:54.549Z,12.20
2023-04-26T03:03:23.120Z,11.93
2023-04-26T03:05:52.566Z,12.32
2023-04-26T03:08:20.440Z,11.75
2023-04-26T03:10:48.323Z,10.90
2023-04-26T03:13:16.174Z,12.93
2023-04-26T03:15:45.399Z,11.43
2023-04-26T03:18:13.413Z,12.40
2023-04-26T03:20:41.230Z,12.98
2023-04-26T03:23:10.487Z,11.75
2023-04-26T03:25:38.453Z,12.30
2023-04-26T03:28:06.447Z,12.25
2023-04-26T03:30:34.284Z,13.10
2023-04-26T03:33:02.287Z,12.38
2023-04-26T03:35:30.242Z,12.43
2023-04-26T03:37:58.778Z,13.43
2023-04-26T03:40:29.302Z,13.00
2023-04-26T03:42:57.272Z,12.85
2023-04-26T03:45:26.804Z,13.40
2023-04-26T03:47:54.942Z,13.48
2023-04-26T03:50:23.582Z,13.50
2023-04-26T03:52:51.696Z,13.45
2023-04-26T03:55:19.535Z,14.02
2023-04-26T03:57:49.782Z,13.75
2023-04-26T04:00:17.854Z,13.68
2023-04-26T04:02:46.996Z,13.35
2023-04-26T04:05:23.893Z,12.15
2023-04-26T04:07:52.280Z,11.45
2023-04-26T04:10:23.153Z,11.38
2023-04-26T04:12:54.723Z,9.80
2023-04-26T04:15:23.533Z,11.43
2023-04-26T04:17:51.811Z,10.90
2023-04-26T04:20:21.713Z,12.23
2023-04-26T04:22:49.873Z,13.25
2023-04-26T04:25:21.324Z,13.38
2023-04-26T04:27:50.288Z,13.35
2023-04-26T04:30:19.787Z,13.70
2023-04-26T04:32:47.711Z,13.80
2023-04-26T04:35:17.809Z,14.27
2023-04-26T04:37:45.777Z,14.32
2023-04-26T04:40:15.454Z,14.35
2023-04-26T04:42:46.336Z,13.80
2023-04-26T04:45:16.410Z,14.27
2023-04-26T04:47:47.567Z,12.95
2023-04-26T04:50:15.948Z,11.48
2023-04-26T04:52:46.249Z,10.77
2023-04-26T04:55:14.469Z,10.68
2023-04-26T04:57:43.372Z,10.77
2023-04-26T05:00:13.031Z,12.25
2023-04-26T05:02:58.913Z,11.68
2023-04-26T05:05:28.718Z,12.50
2023-04-26T05:07:56.793Z,11.13
2023-04-26T05:10:24.701Z,10.63
2023-04-26T05:12:52.489Z,10.43
2023-04-26T05:15:21.021Z,10.00
2023-04-26T05:17:49.384Z,10.15
2023-04-26T05:20:21.211Z,9.95
2023-04-26T05:22:50.199Z,10.32
2023-04-26T05:25:19.268Z,12.48
2023-04-26T05:27:53.260Z,11.90
2023-04-26T05:30:28.516Z,12.32
2023-04-26T05:33:21.189Z,11.93
2023-04-26T05:35:59.798Z,12.25
2023-04-26T05:38:28.386Z,14.00
2023-04-26T05:40:56.770Z,12.85
2023-04-26T05:43:24.659Z,11.60
2023-04-26T05:45:53.166Z,11.40
2023-04-26T05:48:21.816Z,11.18
2023-04-26T05:50:49.682Z,10.65
2023-04-26T05:53:19.234Z,11.25
2023-04-26T05:55:47.066Z,11.27
2023-04-26T05:58:15.800Z,12.13
2023-04-26T06:00:43.759Z,9.95
2023-04-26T06:03:12.599Z,14.30
2023-04-26T06:05:41.439Z,12.02
2023-04-26T06:08:09.523Z,10.32
2023-04-26T06:10:38.852Z,10.50
2023-04-26T06:13:07.932Z,10.43
2023-04-26T06:15:37.980Z,10.70
2023-04-26T06:18:06.643Z,9.90
2023-04-26T06:20:34.552Z,9.20
2023-04-26T06:23:03.249Z,10.20
2023-04-26T06:25:31.055Z,10.70
2023-04-26T06:28:00.808Z,10.18
2023-04-26T06:30:28.738Z,10.80
2023-04-26T06:32:59.118Z,10.30
2023-04-26T06:35:27.172Z,9.95
2023-04-26T06:37:55.159Z,10.35
2023-04-26T06:40:23.104Z,10.20
2023-04-26T06:42:51.049Z,9.30
2023-04-26T06:45:20.422Z,9.50
2023-04-26T06:47:48.439Z,9.13
2023-04-26T06:50:16.364Z,9.75
2023-04-26T06:52:44.106Z,10.05
2023-04-26T06:55:12.169Z,9.75
2023-04-26T06:57:40.034Z,9.15
2023-04-26T07:00:10.898Z,7.90
2023-04-26T07:02:40.146Z,7.70
2023-04-26T07:05:08.840Z,7.13
2023-04-26T07:07:36.829Z,9.38
2023-04-26T07:10:04.907Z,8.57
2023-04-26T07:12:32.865Z,9.10
2023-04-26T07:15:01.477Z,9.60
2023-04-26T07:17:29.451Z,9.73
2023-04-26T07:19:59.228Z,8.68
2023-04-26T07:22:27.100Z,8.90
2023-04-26T07:24:54.988Z,8.30
2023-04-26T07:27:22.857Z,8.80
2023-04-26T07:29:54.326Z,8.13
2023-04-26T07:32:22.319Z,8.75
2023-04-26T07:34:50.220Z,8.55
2023-04-26T07:37:19.502Z,8.63
2023-04-26T07:39:47.259Z,7.80
2023-04-26T07:42:16.580Z,8.90
2023-04-26T07:44:44.348Z,8.98
2023-04-26T07:47:15.812Z,8.45
2023-04-26T07:49:45.271Z,8.75
2023-04-26T07:52:15.298Z,8.95
2023-04-26T07:54:46.558Z,8.75
2023-04-26T07:57:14.461Z,8.85
2023-04-26T07:59:42.253Z,8.23
2023-04-26T08:02:10.114Z,7.82
2023-04-26T08:04:38.198Z,7.80
2023-04-26T08:07:06.050Z,8.32
2023-04-26T08:09:33.875Z,8.40
2023-04-26T08:12:05.266Z,8.63
2023-04-26T08:14:34.394Z,8.75
2023-04-26T08:17:02.568Z,7.65
2023-04-26T08:19:32.678Z,8.20
2023-04-26T08:22:00.838Z,8.73
2023-04-26T08:24:28.803Z,7.63
2023-04-26T08:26:58.540Z,7.65
2023-04-26T08:29:28.086Z,8.50
2023-04-26T08:31:56.970Z,7.43
2023-04-26T08:34:24.823Z,6.78
2023-04-26T08:36:52.702Z,6.90
2023-04-26T08:39:20.419Z,6.53
2023-04-26T08:41:51.300Z,6.03
2023-04-26T08:44:23.366Z,5.88
2023-04-26T08:46:56.915Z,6.60
2023-04-26T08:49:31.525Z,5.70
2023-04-26T08:51:59.708Z,5.82
2023-04-26T08:54:28.531Z,5.70
2023-04-26T08:56:57.277Z,5.50
2023-04-26T08:59:25.227Z,5.65
2023-04-26T09:01:54.481Z,6.13
2023-04-26T09:04:22.601Z,5.50
2023-04-26T09:06:50.935Z,5.57
2023-04-26T09:09:19.567Z,5.60
2023-04-26T09:11:54.508Z,5.95
2023-04-26T09:14:22.311Z,6.32
2023-04-26T09:16:50.175Z,5.35
2023-04-26T09:19:19.396Z,5.15
2023-04-26T09:21:47.682Z,5.80
2023-04-26T09:24:16.101Z,6.40
2023-04-26T09:26:43.972Z,5.72
2023-04-26T09:29:15.953Z,4.43
2023-04-26T09:31:46.338Z,5.03
2023-04-26T09:34:16.290Z,5.20
2023-04-26T09:36:52.569Z,4.65
2023-04-26T09:39:31.607Z,5.20
2023-04-26T09:41:59.661Z,5.25
2023-04-26T09:44:27.578Z,5.65
2023-04-26T09:46:59.174Z,4.80
2023-04-26T09:49:27.412Z,5.35
2023-04-26T09:52:03.440Z,5.18
2023-04-26T09:54:41.060Z,5.22
2023-04-26T09:57:08.872Z,5.18
2023-04-26T09:59:43.318Z,5.60
2023-04-26T10:02:18.079Z,5.53
2023-04-26T10:07:16.985Z,5.60
2023-04-26T10:09:44.944Z,5.30
2023-04-26T10:12:13.149Z,4.75
2023-04-26T10:14:41.585Z,5.40
2023-04-26T10:17:09.483Z,5.05
2023-04-26T10:19:38.011Z,4.78
2023-04-26T10:22:07.547Z,3.95
2023-04-26T10:24:37.664Z,4.40
2023-04-26T10:27:05.562Z,4.63
2023-04-26T10:29:52.245Z,6.03
2023-04-26T10:32:20.674Z,4.97
2023-04-26T10:35:10.812Z,4.53
2023-04-26T10:37:38.879Z,4.25
2023-04-26T10:40:21.625Z,3.47
2023-04-26T10:42:50.934Z,3.75
2023-04-26T10:45:27.695Z,4.47
2023-04-26T10:48:10.485Z,4.50
2023-04-26T10:51:01.293Z,4.30
2023-04-26T10:53:30.757Z,5.78
2023-04-26T10:55:58.639Z,6.10
2023-04-26T10:58:31.289Z,5.80
2023-04-26T11:01:06.579Z,6.60
2023-04-26T11:03:34.739Z,7.03
2023-04-26T11:06:07.241Z,6.72
2023-04-26T11:08:36.630Z,6.25
2023-04-26T11:11:10.004Z,6.63
2023-04-26T11:13:40.188Z,6.50
2023-04-26T11:16:08.837Z,6.25
2023-04-26T11:18:38.867Z,6.53
2023-04-26T11:21:07.143Z,5.68
2023-04-26T11:23:35.769Z,6.25
2023-04-26T11:26:04.530Z,6.35
2023-04-26T11:28:34.333Z,5.32
2023-04-26T11:31:04.244Z,5.57
2023-04-26T11:33:34.192Z,4.97
2023-04-26T11:36:02.190Z,6.20
2023-04-26T11:38:30.148Z,5.50
2023-04-26T11:40:58.983Z,4.85
2023-04-26T11:43:36.984Z,5.15
2023-04-26T11:46:06.962Z,4.85
2023-04-26T11:48:35.878Z,4.80
2023-04-26T11:51:04.389Z,4.55
2023-04-26T11:53:38.778Z,5.25
2023-04-26T11:56:14.283Z,4.13
2023-04-26T11:58:44.800Z,3.13
2023-04-26T12:01:20.886Z,3.40
2023-04-26T12:03:52.041Z,4.75
2023-04-26T12:06:20.248Z,4.10
2023-04-26T12:08:51.374Z,4.50
2023-04-26T12:11:19.984Z,3.55
2023-04-26T12:13:47.829Z,3.10
2023-04-26T12:18:51.381Z,3.72
2023-04-26T12:21:19.263Z,2.88
2023-04-26T12:23:48.207Z,2.78
2023-04-26T12:26:16.515Z,2.40
2023-04-26T12:28:44.456Z,2.65
2023-04-26T12:31:12.394Z,2.50
2023-04-26T12:33:41.826Z,3.03
2023-04-26T12:36:11.321Z,2.60
2023-04-26T12:38:39.424Z,2.42
2023-04-26T12:41:07.402Z,2.55
2023-04-26T12:43:35.396Z,3.33
2023-04-26T12:46:03.491Z,3.63
2023-04-26T12:48:31.629Z,3.60
2023-04-26T12:51:01.396Z,3.65
2023-04-26T12:53:29.211Z,3.30
2023-04-26T12:55:57.056Z,3.60
2023-04-26T12:58:25.552Z,3.72
2023-04-26T13:00:53.518Z,3.30
2023-04-26T13:03:21.579Z,3.83
2023-04-26T13:05:49.571Z,3.17
2023-04-26T13:08:18.945Z,3.83
2023-04-26T13:10:46.736Z,3.28
2023-04-26T13:13:14.503Z,2.65
2023-04-26T13:15:42.470Z,2.40
2023-04-26T13:18:10.738Z,2.70
2023-04-26T13:20:38.779Z,2.65
2023-04-26T19:07:40.817Z,5.93
2023-04-26T19:10:09.171Z,5.75
2023-04-26T19:12:36.968Z,5.80
2023-04-26T19:15:05.214Z,5.82
2023-04-26T19:17:34.350Z,6.60
2023-04-26T19:20:02.846Z,6.03
2023-04-26T19:22:31.179Z,5.70
2023-04-26T19:25:00.363Z,4.65
2023-04-26T19:27:28.371Z,4.57
2023-04-26T19:29:56.237Z,5.05
2023-04-26T19:32:24.784Z,4.53
2023-04-26T19:34:53.248Z,4.88
2023-04-26T19:37:21.860Z,4.43
2023-04-26T19:39:50.388Z,4.72
2023-04-26T19:42:19.579Z,4.38
2023-04-26T19:44:48.401Z,4.60
2023-04-26T19:47:16.658Z,4.65
2023-04-26T19:49:44.496Z,4.63
2023-04-26T19:52:13.477Z,5.47
2023-04-26T19:54:41.723Z,5.45
2023-04-26T19:57:09.693Z,5.63
2023-04-26T19:59:38.925Z,5.60
2023-04-26T20:02:07.657Z,5.20
2023-04-26T20:04:35.623Z,5.97
2023-04-26T20:07:05.020Z,5.70
2023-04-26T20:09:34.703Z,5.90
2023-04-26T20:12:03.070Z,6.57
2023-04-26T20:14:31.225Z,7.78
2023-04-26T20:17:02.502Z,5.32
2023-04-26T20:19:30.680Z,5.70
2023-04-26T20:21:58.478Z,5.13
2023-04-26T20:24:28.106Z,6.35
2023-04-26T20:26:56.575Z,6.40
2023-04-26T20:29:24.816Z,6.50
2023-04-26T20:31:52.831Z,6.63
2023-04-26T20:34:22.753Z,7.22
2023-04-26T20:36:51.487Z,6.65
2023-04-26T20:39:21.805Z,6.57
2023-04-26T20:41:49.975Z,6.03
2023-04-26T20:44:17.919Z,5.45
2023-04-26T20:46:46.405Z,5.15
2023-04-26T20:49:14.460Z,4.88
2023-04-26T20:51:43.739Z,5.40
2023-04-26T20:54:11.795Z,5.30
2023-04-26T20:56:39.734Z,5.05
2023-04-26T20:59:08.417Z,5.20
2023-04-26T21:01:36.708Z,4.70
2023-04-26T21:04:04.850Z,5.15
2023-04-26T21:06:32.980Z,6.85
2023-04-26T21:09:02.158Z,6.03
2023-04-26T21:11:30.087Z,6.45
2023-04-26T21:13:58.797Z,6.32
2023-04-26T21:16:26.905Z,5.10
2023-04-26T21:18:54.874Z,5.13
2023-04-26T21:21:23.412Z,5.55
2023-04-26T21:23:51.529Z,4.53
2023-04-26T21:26:21.166Z,5.07
2023-04-26T21:28:48.982Z,4.45
2023-04-26T21:31:17.073Z,8.57
2023-04-26T21:33:45.129Z,4.25
2023-04-26T21:36:13.068Z,4.07
2023-04-26T21:38:41.377Z,4.80
2023-04-26T21:41:09.301Z,5.32
2023-04-26T21:43:39.019Z,5.28
2023-04-26T21:46:08.096Z,4.95
2023-04-26T21:48:36.450Z,5.40
2023-04-26T21:51:04.699Z,5.13
2023-04-26T21:53:32.554Z,5.25
2023-04-26T21:56:00.429Z,5.35
2023-04-26T21:58:28.740Z,5.13
2023-04-26T22:01:07.125Z,5.30
2023-04-26T22:03:35.196Z,5.03
2023-04-26T22:06:03.004Z,5.03
2023-04-26T22:08:31.115Z,5.45
2023-04-26T22:10:59.170Z,4.70
2023-04-26T22:13:26.944Z,5.32
2023-04-26T22:15:55.215Z,5.35
2023-04-26T22:18:25.997Z,5.78
2023-04-26T22:20:54.704Z,5.43
2023-04-26T22:23:22.470Z,6.55
2023-04-26T22:25:50.145Z,6.43
2023-04-26T22:28:17.934Z,6.22
2023-04-26T22:30:47.075Z,7.22
2023-04-26T22:33:15.560Z,5.90
2023-04-26T22:35:46.432Z,5.55
2023-04-26T22:38:14.367Z,5.47
2023-04-26T22:40:42.272Z,5.47
2023-04-26T22:43:10.650Z,5.55
2023-04-26T22:45:38.497Z,5.53
2023-04-26T22:48:06.505Z,6.18
2023-04-26T22:50:34.457Z,5.40
2023-04-26T22:53:03.809Z,5.90
2023-04-26T22:55:32.253Z,5.93
2023-04-26T22:58:00.078Z,6.20
2023-04-26T23:00:27.999Z,6.65
2023-04-26T23:02:56.006Z,8.45
2023-04-26T23:05:24.089Z,7.22
2023-04-26T23:07:53.347Z,6.80
2023-04-26T23:10:22.692Z,7.03
2023-04-26T23:12:50.735Z,6.80
2023-04-26T23:15:18.826Z,6.65
2023-04-26T23:17:46.949Z,6.53
2023-04-26T23:20:15.804Z,7.25
2023-04-26T23:22:44.298Z,7.15
2023-04-26T23:25:12.122Z,6.70
2023-04-26T23:27:41.496Z,7.85
2023-04-26T23:30:09.779Z,7.68
2023-04-26T23:32:37.653Z,7.75
2023-04-26T23:35:07.190Z,8.10
2023-04-26T23:37:35.092Z,7.65
2023-04-26T23:40:04.033Z,8.32
2023-04-26T23:42:31.845Z,8.23
2023-04-26T23:45:01.052Z,8.68
2023-04-26T23:47:30.204Z,8.45
2023-04-26T23:49:58.219Z,8.50
2023-04-26T23:52:26.149Z,9.10
2023-04-26T23:54:54.623Z,9.68
2023-04-26T23:57:22.566Z,9.30
2023-04-26T23:59:50.666Z,8.63
